Time;durP1;ratioP1;P1;durP2;ratioP2;P2;SDS_P1;SDS_P2;PMS_P1;PMS_P2;Temp;Humidity;BMP_temperature;BMP_pressure;BME280_temperature;BME280_humidity;BME280_pressure;Samples;Min_cycle;Max_cycle;Signal;HPM_P1;HPM_P2
2021/10/01 00:07:25;;;;;;;5.10;1.30;;;6.70;99.90;;;;;;20783431;28;20344;-79
2021/10/01 00:17:26;;;;;;;3.53;1.80;;;6.80;99.90;;;;;;20765707;28;20048;-79
2021/10/01 00:27:27;;;;;;;5.33;1.80;;;6.80;99.90;;;;;;20774978;28;20085;-79
2021/10/01 00:37:28;;;;;;;9.10;2.00;;;6.70;99.90;;;;;;20771837;28;20026;-77
2021/10/01 00:47:29;;;;;;;2.50;1.70;;;6.90;99.90;;;;;;20752414;28;20034;-78
2021/10/01 00:57:29;;;;;;;5.60;1.60;;;6.90;99.90;;;;;;20772549;28;20038;-78
2021/10/01 01:07:51;;;;;;;3.10;1.73;;;7.00;99.90;;;;;;20752404;28;20129;-78
2021/10/01 01:17:55;;;;;;;;;;;6.90;99.90;;;;;;20750937;28;20041;-77
2021/10/01 01:28:19;;;;;;;3.70;1.67;;;6.80;99.90;;;;;;20749617;28;20509;-79
2021/10/01 01:38:39;;;;;;;9.68;2.20;;;6.80;99.90;;;;;;20747676;28;20716;-78
2021/10/01 01:48:41;;;;;;;5.82;2.13;;;6.80;99.90;;;;;;20768376;28;20583;-79
2021/10/01 01:58:44;;;;;;;7.25;2.20;;;6.70;99.90;;;;;;20761560;28;20033;-78
2021/10/01 02:08:54;;;;;;;3.70;1.37;;;6.60;99.90;;;;;;20760732;28;20034;-79
2021/10/01 02:18:58;;;;;;;9.57;2.30;;;6.60;99.90;;;;;;20759145;28;20401;-78
2021/10/01 02:29:10;;;;;;;4.50;2.25;;;6.40;99.90;;;;;;20744477;28;20493;-78
2021/10/01 02:39:11;;;;;;;3.13;1.93;;;6.40;99.90;;;;;;20759816;28;20026;-78
2021/10/01 02:49:12;;;;;;;6.87;2.07;;;6.40;99.90;;;;;;20758831;28;20037;-78
2021/10/01 02:59:16;;;;;;;5.17;1.90;;;6.30;99.90;;;;;;20761333;28;20040;-77
2021/10/01 03:09:22;;;;;;;2.72;1.80;;;6.30;99.90;;;;;;20670268;23;20125;-77
2021/10/01 03:19:24;;;;;;;3.42;1.92;;;6.20;99.90;;;;;;20585919;28;20497;-76
2021/10/01 03:29:26;;;;;;;5.22;2.33;;;6.10;99.90;;;;;;20568990;28;20493;-77
2021/10/01 03:39:27;;;;;;;4.25;2.33;;;6.10;99.90;;;;;;20593377;28;20034;-77
2021/10/01 03:49:28;;;;;;;5.43;2.30;;;6.00;99.90;;;;;;20567610;28;20453;-77
2021/10/01 03:59:29;;;;;;;5.43;2.17;;;6.00;99.90;;;;;;20567126;28;20030;-77
2021/10/01 04:09:33;;;;;;;3.83;2.10;;;6.00;99.90;;;;;;20581967;28;20198;-76
2021/10/01 04:19:34;;;;;;;3.07;2.30;;;6.00;99.90;;;;;;20581495;28;20058;-76
2021/10/01 04:29:35;;;;;;;4.00;2.20;;;6.00;99.90;;;;;;20581007;28;20034;-76
2021/10/01 04:39:36;;;;;;;4.93;2.13;;;6.00;99.90;;;;;;20580649;28;20073;-76
2021/10/01 04:49:37;;;;;;;;;;;5.90;99.90;;;;;;20580784;28;20574;-76
2021/10/01 04:59:38;;;;;;;5.88;2.17;;;5.90;99.90;;;;;;20581347;28;19910;-75
2021/10/01 05:10:03;;;;;;;5.97;2.05;;;5.70;99.90;;;;;;20561592;28;20054;-76
2021/10/01 05:20:22;;;;;;;6.07;2.13;;;5.70;99.90;;;;;;20581527;28;20047;-76
2021/10/01 05:30:32;;;;;;;7.03;2.47;;;5.60;99.90;;;;;;20593513;28;20039;-76
2021/10/01 05:40:33;;;;;;;3.88;2.63;;;5.70;99.90;;;;;;20597037;28;20069;-77
2021/10/01 05:50:39;;;;;;;4.50;2.30;;;5.70;99.90;;;;;;20596467;28;20114;-78
2021/10/01 06:01:00;;;;;;;8.05;2.70;;;5.80;99.90;;;;;;20604763;28;20038;-77
2021/10/01 06:11:01;;;;;;;7.35;2.72;;;5.90;99.90;;;;;;20607400;28;20121;-76
2021/10/01 06:21:02;;;;;;;3.28;2.20;;;6.20;99.90;;;;;;20590083;28;20074;-76
2021/10/01 06:31:03;;;;;;;8.13;2.50;;;6.70;99.90;;;;;;20590934;28;20039;-76
2021/10/01 06:41:04;;;;;;;6.00;2.50;;;7.10;99.90;;;;;;20589722;28;20437;-77
2021/10/01 08:23:34;;;;;;;3.60;2.33;;;12.40;99.90;;;;;;20502933;28;20106;-77
2021/10/01 08:33:34;;;;;;;8.40;2.50;;;13.20;99.90;;;;;;20502476;28;20078;-77
2021/10/01 08:43:37;;;;;;;5.63;2.77;;;13.90;99.90;;;;;;20500719;28;20031;-77
2021/10/01 08:53:39;;;;;;;4.18;2.67;;;15.10;99.90;;;;;;20501731;29;20494;-77
2021/10/01 09:03:41;;;;;;;10.73;4.00;;;15.80;99.90;;;;;;20623247;23;20041;-79
2021/10/01 09:13:42;;;;;;;6.53;3.83;;;15.80;99.90;;;;;;20840659;28;20036;-79
2021/10/01 09:23:58;;;;;;;7.13;3.60;;;15.90;99.90;;;;;;20852232;28;20026;-79
2021/10/01 09:34:00;;;;;;;12.02;3.88;;;16.40;99.90;;;;;;20845104;28;20029;-79
2021/10/01 09:44:02;;;;;;;;;;;17.40;99.90;;;;;;20847753;28;20468;-82
2021/10/01 09:54:12;;;;;;;9.57;3.30;;;17.10;99.90;;;;;;20833808;28;20290;-80
2021/10/01 10:04:15;;;;;;;5.10;3.53;;;17.90;99.90;;;;;;20848586;28;20132;-81
2021/10/01 10:14:15;;;;;;;4.65;2.90;;;18.70;99.90;;;;;;20835821;28;20518;-82
2021/10/01 10:24:17;;;;;;;9.43;3.17;;;18.50;99.90;;;;;;20822665;28;20041;-81
2021/10/01 10:34:23;;;;;;;;;;;19.50;99.90;;;;;;20866375;28;20033;-78
2021/10/01 10:44:40;;;;;;;6.57;2.78;;;19.40;99.90;;;;;;20837968;28;19932;-80
2021/10/01 10:55:12;;;;;;;4.32;2.70;;;20.60;99.90;;;;;;20865340;28;20452;-79
2021/10/01 11:05:20;;;;;;;8.18;2.85;;;21.00;99.90;;;;;;20841719;28;20041;-80
2021/10/01 11:15:23;;;;;;;6.35;2.97;;;20.20;99.90;;;;;;20828813;28;20034;-81
2021/10/01 11:25:24;;;;;;;11.50;3.30;;;21.00;99.90;;;;;;20841645;28;20033;-80
2021/10/01 11:35:24;;;;;;;6.30;2.87;;;21.70;99.90;;;;;;20858260;28;20059;-80
2021/10/01 11:45:34;;;;;;;5.70;3.63;;;22.40;99.90;;;;;;20822946;28;20080;-80
2021/10/01 11:55:36;;;;;;;5.05;2.70;;;22.90;99.90;;;;;;20830257;28;20428;-79
2021/10/01 12:05:36;;;;;;;5.10;2.35;;;21.80;99.90;;;;;;20829846;28;20037;-79
2021/10/01 12:15:48;;;;;;;4.80;2.33;;;22.30;99.90;;;;;;20821488;28;20707;-79
2021/10/01 12:25:50;;;;;;;9.35;2.65;;;23.40;99.90;;;;;;20838446;28;20291;-78
2021/10/01 12:35:51;;;;;;;4.85;2.15;;;23.00;99.90;;;;;;20810400;28;20262;-79
2021/10/01 12:45:52;;;;;;;8.82;3.55;;;23.80;99.90;;;;;;20811645;28;20116;-79
2021/10/01 12:55:53;;;;;;;3.93;2.33;;;23.40;99.90;;;;;;20831676;28;20021;-79
2021/10/01 13:05:54;;;;;;;6.27;1.70;;;23.90;99.90;;;;;;20833207;28;20989;-79
2021/10/01 13:15:59;;;;;;;4.97;2.30;;;24.30;99.90;;;;;;20835957;28;20628;-79
2021/10/01 13:26:03;;;;;;;8.98;1.90;;;24.30;99.90;;;;;;20833564;28;20133;-80
2021/10/01 13:36:04;;;;;;;7.90;1.90;;;24.20;99.90;;;;;;20832274;28;20473;-80
2021/10/01 13:46:05;;;;;;;;;;;23.60;99.90;;;;;;20824160;28;20041;-81
2021/10/01 13:56:07;;;;;;;5.83;2.43;;;24.00;99.90;;;;;;20853016;28;19912;-78
2021/10/01 14:06:08;;;;;;;8.93;2.08;;;23.60;99.90;;;;;;20852615;28;20100;-78
2021/10/01 14:16:08;;;;;;;3.77;1.80;;;23.60;99.90;;;;;;20854818;28;20033;-78
2021/10/01 14:26:09;;;;;;;5.30;1.70;;;22.20;99.90;;;;;;20831351;28;20099;-80
2021/10/01 14:36:10;;;;;;;8.63;1.57;;;23.80;99.90;;;;;;20848843;28;20634;-78
2021/10/01 14:46:11;;;;;;;8.33;1.70;;;23.50;99.90;;;;;;20848436;28;20107;-78
2021/10/01 14:56:11;;;;;;;3.77;1.57;;;24.10;99.90;;;;;;20830411;28;20037;-79
2021/10/01 15:06:12;;;;;;;;;;;24.90;99.90;;;;;;20848921;28;20668;-77
2021/10/01 15:16:13;;;;;;;6.03;2.10;;;24.30;99.90;;;;;;20857992;28;19913;-81
2021/10/01 15:26:16;;;;;;;;;;;23.60;99.90;;;;;;20862188;28;20087;-80
2021/10/01 15:36:20;;;;;;;2.65;1.50;;;23.90;99.90;;;;;;20833333;28;19931;-80
2021/10/01 15:46:20;;;;;;;5.80;1.75;;;24.20;99.90;;;;;;20860211;28;20048;-79
2021/10/01 15:56:21;;;;;;;3.17;1.50;;;23.20;99.90;;;;;;20870090;28;20684;-80
2021/10/01 16:06:22;;;;;;;3.13;1.58;;;22.00;99.90;;;;;;20860476;28;20039;-79
2021/10/01 16:16:23;;;;;;;3.00;1.60;;;20.90;99.90;;;;;;20823920;28;20029;-80
2021/10/01 16:26:24;;;;;;;7.10;2.40;;;19.90;99.90;;;;;;20875719;28;20032;-79
2021/10/01 16:36:25;;;;;;;6.00;2.70;;;19.20;99.90;;;;;;20846115;28;20033;-79
2021/10/01 16:46:26;;;;;;;3.40;1.90;;;17.90;99.90;;;;;;20831014;28;20380;-80
2021/10/01 16:56:26;;;;;;;6.03;2.23;;;17.90;99.90;;;;;;20858782;28;20462;-79
2021/10/01 17:06:28;;;;;;;6.23;2.20;;;17.40;99.90;;;;;;20853413;28;20071;-80
2021/10/01 17:16:28;;;;;;;5.37;2.37;;;16.40;99.90;;;;;;20844611;28;20060;-79
2021/10/01 17:26:30;;;;;;;5.43;2.60;;;16.00;99.90;;;;;;20836632;28;20495;-79
2021/10/01 17:36:31;;;;;;;7.30;2.75;;;16.00;99.90;;;;;;20844826;28;20037;-79
2021/10/01 17:46:32;;;;;;;3.97;2.77;;;15.00;99.90;;;;;;20852593;28;20488;-79
2021/10/01 17:56:33;;;;;;;7.23;3.90;;;15.30;99.90;;;;;;20841493;28;20037;-80
2021/10/01 18:06:34;;;;;;;8.17;4.37;;;15.20;99.90;;;;;;20847248;28;20041;-79
2021/10/01 18:16:35;;;;;;;7.07;3.87;;;14.90;99.90;;;;;;20862006;28;20087;-80
2021/10/01 18:26:36;;;;;;;6.30;3.27;;;14.50;99.90;;;;;;20876803;28;20458;-79
2021/10/01 18:36:37;;;;;;;7.93;3.37;;;14.30;99.90;;;;;;20853024;28;20037;-79
2021/10/01 18:46:38;;;;;;;11.17;3.13;;;13.90;99.90;;;;;;20871858;28;20044;-80
2021/10/01 18:56:38;;;;;;;6.30;3.40;;;13.70;99.90;;;;;;20850522;28;20042;-81
2021/10/01 19:06:39;;;;;;;5.57;3.30;;;14.00;99.90;;;;;;20870808;28;20056;-79
2021/10/01 19:16:41;;;;;;;5.23;3.53;;;13.70;99.90;;;;;;20857212;28;20029;-81
2021/10/01 19:36:58;;;;;;;5.68;3.88;;;13.40;99.90;;;;;;20827494;28;20051;-79
2021/10/01 19:46:59;;;;;;;6.17;3.30;;;13.30;99.90;;;;;;20809473;28;20096;-79
2021/10/01 19:57:00;;;;;;;7.53;3.53;;;13.20;99.90;;;;;;20817731;28;20049;-78
2021/10/01 20:07:01;;;;;;;7.27;3.80;;;13.00;99.90;;;;;;20873340;28;20272;-80
2021/10/01 20:17:02;;;;;;;5.50;3.50;;;12.90;99.90;;;;;;20881860;28;20053;-79
2021/10/01 20:47:42;;;;;;;5.05;3.40;;;12.80;99.90;;;;;;20884444;28;20037;-79
2021/10/01 21:39:10;;;;;;;8.27;3.87;;;12.30;99.90;;;;;;20892866;28;20033;-79
2021/10/01 21:49:11;;;;;;;6.85;3.95;;;12.40;99.90;;;;;;20889422;28;20097;-79
2021/10/01 21:59:41;;;;;;;6.95;3.92;;;12.40;99.90;;;;;;20900650;28;20048;-80
2021/10/01 22:20:05;;;;;;;9.38;4.28;;;12.20;99.90;;;;;;20890044;28;20029;-79
2021/10/01 22:30:08;;;;;;;6.47;4.45;;;12.10;99.90;;;;;;20874642;28;20041;-79
2021/10/01 22:40:16;;;;;;;9.43;3.78;;;12.10;99.90;;;;;;20897781;28;20037;-79
2021/10/01 22:50:17;;;;;;;8.40;4.05;;;12.20;99.90;;;;;;20905473;28;20026;-79
2021/10/01 23:00:21;;;;;;;6.60;3.50;;;12.00;99.90;;;;;;20896004;28;20030;-80
